Time;durP1;ratioP1;P1;durP2;ratioP2;P2;SDS_P1;SDS_P2;PMS_P1;PMS_P2;Temp;Humidity;BMP_temperature;BMP_pressure;BME280_temperature;BME280_humidity;BME280_pressure;Samples;Min_cycle;Max_cycle;Signal;HPM_P1;HPM_P2
2022/01/18 00:01:34;;;;;;;26.90;4.95;;;;;;;2.46;100.00;103861.44;5078659;28;20025;-75
2022/01/18 00:04:00;;;;;;;22.60;4.60;;;;;;;2.45;100.00;103857.03;5070156;28;20025;-75
2022/01/18 00:06:26;;;;;;;23.58;4.82;;;;;;;2.45;100.00;103861.38;5062011;28;20028;-75
2022/01/18 00:08:51;;;;;;;26.60;5.13;;;;;;;2.44;100.00;103863.13;5072433;28;20150;-74
2022/01/18 00:11:19;;;;;;;22.20;4.70;;;;;;;2.40;100.00;103874.28;5072181;28;20477;-78
2022/01/18 00:13:48;;;;;;;26.75;5.57;;;;;;;2.36;100.00;103877.63;5071937;28;20032;-78
2022/01/18 00:18:54;;;;;;;27.55;4.38;;;;;;;2.28;100.00;103876.44;5072041;28;20064;-83
2022/01/18 00:21:32;;;;;;;24.85;5.03;;;;;;;2.31;100.00;103880.91;5072331;28;20021;-79
2022/01/18 00:23:59;;;;;;;22.95;4.70;;;;;;;2.31;100.00;103886.13;5071849;28;20056;-84
2022/01/18 00:26:28;;;;;;;20.15;4.45;;;;;;;2.32;100.00;103878.34;5072311;28;20048;-79
2022/01/18 00:28:59;;;;;;;18.83;4.22;;;;;;;2.36;100.00;103893.31;5071287;28;20433;-80
2022/01/18 00:34:05;;;;;;;19.00;4.85;;;;;;;2.35;100.00;103890.66;5072027;28;20139;-74
2022/01/18 00:36:57;;;;;;;21.13;4.95;;;;;;;2.31;100.00;103896.59;5072286;28;20025;-84
2022/01/18 00:39:22;;;;;;;23.95;4.72;;;;;;;2.41;100.00;103881.31;5070937;28;20028;-77
2022/01/18 00:41:48;;;;;;;21.27;4.38;;;;;;;2.50;100.00;103891.22;5071865;28;20033;-76
2022/01/18 00:44:14;;;;;;;35.83;5.90;;;;;;;2.53;100.00;103891.38;5073212;28;20085;-79
2022/01/18 00:46:40;;;;;;;26.02;4.45;;;;;;;2.57;100.00;103889.72;5075523;28;20434;-79
2022/01/18 00:49:05;;;;;;;29.73;5.43;;;;;;;2.56;100.00;103881.00;5075032;28;20033;-75
2022/01/18 00:51:36;;;;;;;29.48;4.75;;;;;;;2.69;100.00;103886.72;5075622;28;20108;-83
2022/01/18 00:54:03;;;;;;;24.48;4.93;;;;;;;2.69;100.00;103892.81;5075685;28;20028;-84
2022/01/18 00:56:31;;;;;;;19.45;3.75;;;;;;;2.63;100.00;103889.97;5075425;28;20123;-79
2022/01/18 00:58:58;;;;;;;19.63;4.15;;;;;;;2.56;100.00;103891.47;5074849;28;20035;-76
2022/01/18 01:01:29;;;;;;;26.98;4.65;;;;;;;2.52;100.00;103891.28;5075114;28;20036;-80
2022/01/18 01:03:59;;;;;;;21.15;4.07;;;;;;;2.61;100.00;103891.66;5075185;28;20021;-79
2022/01/18 01:06:25;;;;;;;24.00;4.90;;;;;;;2.63;100.00;103882.13;5075119;28;20039;-74
2022/01/18 01:08:51;;;;;;;25.88;4.35;;;;;;;2.68;100.00;103879.69;5074837;28;20365;-74
2022/01/18 01:11:17;;;;;;;28.88;4.55;;;;;;;2.75;100.00;103876.44;5074930;28;20060;-75
2022/01/18 01:13:46;;;;;;;30.30;4.60;;;;;;;2.81;100.00;103875.78;5074689;28;20537;-74
2022/01/18 01:43:23;;;;;;;28.90;4.60;;;;;;;2.56;100.00;103872.28;5074553;28;20395;-85
2022/01/18 01:45:51;;;;;;;21.35;4.05;;;;;;;2.55;100.00;103873.09;5074315;28;20028;-82
2022/01/18 01:48:17;;;;;;;21.08;4.63;;;;;;;2.56;100.00;103872.28;5073986;28;20029;-82
2022/01/18 01:50:54;;;;;;;24.65;4.25;;;;;;;2.51;100.00;103871.22;5073893;28;20435;-83
2022/01/18 01:53:22;;;;;;;17.52;4.03;;;;;;;2.44;100.00;103878.81;5074226;28;20069;-77
2022/01/18 01:55:50;;;;;;;17.27;4.22;;;;;;;2.39;100.00;103884.69;5073883;28;20139;-84
2022/01/18 01:58:16;;;;;;;16.80;4.28;;;;;;;2.36;100.00;103887.19;5074125;28;20060;-77
2022/01/18 02:00:57;;;;;;;19.00;3.92;;;;;;;2.33;100.00;103885.38;5073429;28;20105;-75
2022/01/18 02:03:23;;;;;;;18.42;4.57;;;;;;;2.33;100.00;103897.53;5073598;28;20028;-75
2022/01/18 02:05:49;;;;;;;19.83;4.07;;;;;;;2.34;100.00;103892.38;5073652;28;20380;-76
2022/01/18 02:08:15;;;;;;;21.60;4.43;;;;;;;2.33;100.00;103890.59;5073772;28;20540;-79
2022/01/18 02:10:42;;;;;;;18.70;3.40;;;;;;;2.27;100.00;103887.72;5073872;28;20107;-77
2022/01/18 02:13:08;;;;;;;22.55;4.15;;;;;;;2.19;100.00;103883.94;5072559;28;20111;-74
2022/01/18 02:15:42;;;;;;;14.95;3.63;;;;;;;2.12;100.00;103880.16;5072986;28;20211;-82
2022/01/18 02:23:36;;;;;;;14.73;3.80;;;;;;;1.98;100.00;103879.63;5073198;28;20101;-78
2022/01/18 02:26:01;;;;;;;19.65;4.43;;;;;;;1.92;100.00;103885.50;5066584;28;20375;-84
2022/01/18 02:28:27;;;;;;;26.58;5.72;;;;;;;1.90;100.00;103875.81;5061863;28;20029;-74
2022/01/18 02:30:54;;;;;;;20.95;4.65;;;;;;;1.86;100.00;103880.03;5053103;28;20112;-74
2022/01/18 02:33:20;;;;;;;24.27;5.22;;;;;;;1.85;100.00;103875.63;5071804;28;20027;-75
2022/01/18 02:35:46;;;;;;;22.88;5.50;;;;;;;1.83;100.00;103879.00;5072975;28;20103;-77
2022/01/18 02:38:12;;;;;;;27.17;4.43;;;;;;;1.78;100.00;103871.88;5073729;28;20075;-83
2022/01/18 02:40:38;;;;;;;23.65;4.30;;;;;;;1.74;100.00;103871.69;5073225;28;20456;-84
2022/01/18 02:43:46;;;;;;;23.52;4.97;;;;;;;1.72;100.00;103868.13;5072922;28;20020;-84
2022/01/18 02:45:54;;;;;;;19.00;4.32;;;;;;;1.70;100.00;103865.47;5072765;28;20042;-78
2022/01/18 02:48:19;;;;;;;22.88;4.50;;;;;;;1.67;100.00;103872.28;5072797;28;20104;-82
2022/01/18 02:50:45;;;;;;;16.92;4.30;;;;;;;1.66;100.00;103875.72;5073332;28;20115;-83
2022/01/18 02:53:11;;;;;;;13.38;3.80;;;;;;;1.74;100.00;103879.50;5087516;28;20095;-76
2022/01/18 02:55:36;;;;;;;14.02;4.20;;;;;;;1.85;100.00;103874.75;5084703;28;20052;-82
2022/01/18 02:58:03;;;;;;;14.18;4.20;;;;;;;1.93;100.00;103879.47;5072808;28;20036;-80
2022/01/18 03:00:44;;;;;;;17.77;5.72;;;;;;;1.95;100.00;103875.16;5073282;28;20017;-81
2022/01/18 03:03:17;;;;;;;13.52;4.85;;;;;;;1.92;100.00;103880.28;5072375;28;20492;-77
2022/01/18 03:05:45;;;;;;;23.95;6.20;;;;;;;1.85;100.00;103875.63;5053284;28;20079;-83
2022/01/18 03:08:12;;;;;;;24.27;5.60;;;;;;;1.78;100.00;103868.38;5062219;28;20027;-84
2022/01/18 03:10:38;;;;;;;19.83;5.00;;;;;;;1.73;100.00;103864.69;5072724;28;20070;-74
2022/01/18 03:13:05;;;;;;;25.65;6.05;;;;;;;1.66;100.00;103873.97;5072636;28;20384;-80
2022/01/18 03:15:31;;;;;;;24.13;6.75;;;;;;;1.61;100.00;103871.19;5072448;28;20060;-79
2022/01/18 03:17:57;;;;;;;26.38;6.30;;;;;;;1.57;100.00;103869.28;5072264;28;20506;-78
2022/01/18 03:20:23;;;;;;;16.92;5.15;;;;;;;1.55;100.00;103872.63;5072754;28;20032;-80
2022/01/18 03:22:50;;;;;;;17.50;5.47;;;;;;;1.55;100.00;103864.81;5072798;28;20059;-80
2022/01/18 03:28:06;;;;;;;11.30;4.53;;;;;;;1.66;100.00;103878.31;5072871;28;20029;-81
2022/01/18 03:30:37;;;;;;;14.80;5.18;;;;;;;1.72;100.00;103876.84;5072534;28;20032;-84
2022/01/18 03:33:04;;;;;;;25.77;5.63;;;;;;;1.82;100.00;103877.22;5072548;28;20029;-74
2022/01/18 03:35:30;;;;;;;15.95;5.07;;;;;;;1.90;100.00;103878.44;5072575;28;20108;-82
2022/01/18 03:37:56;;;;;;;18.38;5.82;;;;;;;1.98;100.00;103877.00;5072603;28;20485;-82
2022/01/18 03:40:22;;;;;;;55.28;5.85;;;;;;;2.06;100.00;103874.69;5069736;28;20029;-79
2022/01/18 03:42:48;;;;;;;47.10;7.13;;;;;;;2.12;100.00;103878.47;5072339;28;20675;-79
2022/01/18 03:45:17;;;;;;;11.90;5.05;;;;;;;2.15;100.00;103868.94;5072343;28;20078;-77
2022/01/18 03:47:45;;;;;;;16.88;5.18;;;;;;;2.16;100.00;103878.56;5072552;28;20032;-80
2022/01/18 03:50:12;;;;;;;11.90;4.80;;;;;;;2.18;100.00;103884.78;5072158;28;20024;-84
2022/01/18 03:52:38;;;;;;;14.32;4.55;;;;;;;2.19;100.00;103881.31;5072426;28;20064;-74
2022/01/18 03:55:06;;;;;;;13.50;5.68;;;;;;;2.17;100.00;103878.63;5072234;28;20024;-81
2022/01/18 03:57:31;;;;;;;15.75;5.45;;;;;;;2.12;100.00;103880.16;5071914;28;20086;-83
2022/01/18 03:59:57;;;;;;;14.38;6.35;;;;;;;2.10;100.00;103879.25;5055811;28;20017;-82
2022/01/18 04:02:22;;;;;;;14.35;5.40;;;;;;;2.08;100.00;103883.50;5069516;28;20464;-75
2022/01/18 04:04:47;;;;;;;20.88;5.03;;;;;;;2.08;100.00;103887.00;5071905;28;20093;-79
2022/01/18 04:07:13;;;;;;;21.92;5.10;;;;;;;2.09;100.00;103888.78;5071783;28;20385;-79
2022/01/18 04:09:38;;;;;;;14.40;4.65;;;;;;;2.10;100.00;103889.69;5072058;28;20090;-74
2022/01/18 04:12:05;;;;;;;11.98;4.55;;;;;;;2.11;100.00;103886.22;5072046;28;20032;-78
2022/01/18 04:14:31;;;;;;;25.58;5.13;;;;;;;2.12;100.00;103895.84;5072237;28;20032;-84
2022/01/18 04:17:10;;;;;;;15.13;4.82;;;;;;;2.11;100.00;103897.59;5072074;28;20369;-73
2022/01/18 04:27:37;;;;;;;18.55;6.45;;;;;;;2.07;100.00;103907.84;5075806;28;20554;-81
2022/01/18 04:30:05;;;;;;;26.90;6.45;;;;;;;2.06;100.00;103903.44;5075692;28;20020;-73
2022/01/18 04:32:30;;;;;;;22.90;7.13;;;;;;;2.07;100.00;103905.25;5075510;28;20031;-84
2022/01/18 04:34:55;;;;;;;16.98;7.05;;;;;;;2.05;100.00;103901.69;5075591;28;20021;-75
2022/01/18 04:37:21;;;;;;;22.17;7.13;;;;;;;2.03;100.00;103909.44;5075647;28;20062;-77
2022/01/18 04:39:48;;;;;;;18.25;6.07;;;;;;;2.06;100.00;103898.22;5075666;28;20033;-80
2022/01/18 04:42:18;;;;;;;19.85;7.25;;;;;;;2.05;100.00;103905.19;5075497;28;20476;-82
2022/01/18 04:50:11;;;;;;;16.40;6.05;;;;;;;2.17;100.00;103901.28;5074650;28;20094;-81
2022/01/18 04:52:37;;;;;;;36.72;6.82;;;;;;;2.21;100.00;103911.03;5075378;28;20036;-78
2022/01/18 04:55:04;;;;;;;15.75;6.00;;;;;;;2.26;100.00;103902.53;5074991;28;20025;-83
2022/01/18 05:00:14;;;;;;;14.60;5.47;;;;;;;2.21;100.00;103901.47;5075153;28;20047;-80
2022/01/18 05:02:39;;;;;;;24.35;5.75;;;;;;;2.19;100.00;103904.84;5075417;28;20115;-78
2022/01/18 05:05:05;;;;;;;13.32;5.70;;;;;;;2.17;100.00;103906.50;5074572;28;20123;-83
2022/01/18 05:07:30;;;;;;;13.57;5.35;;;;;;;2.12;100.00;103909.84;5074666;28;20036;-80
2022/01/18 05:09:56;;;;;;;15.63;5.07;;;;;;;2.12;100.00;103915.06;5069876;28;20025;-75
2022/01/18 05:12:45;;;;;;;20.20;5.40;;;;;;;2.11;100.00;103922.81;5071720;28;20036;-77
2022/01/18 05:15:34;;;;;;;10.15;4.70;;;;;;;2.06;100.00;103914.81;5074553;28;20129;-81
2022/01/18 05:23:07;;;;;;;15.65;4.85;;;;;;;1.87;100.00;103907.94;5062521;28;20123;-79
2022/01/18 05:25:33;;;;;;;12.20;5.00;;;;;;;1.86;100.00;103900.06;5062123;28;20032;-73
2022/01/18 05:28:01;;;;;;;10.35;4.88;;;;;;;1.87;100.00;103904.47;5081215;28;20024;-79
2022/01/18 05:30:27;;;;;;;12.77;5.20;;;;;;;1.83;100.00;103910.34;5077241;28;20027;-82
2022/01/18 05:32:53;;;;;;;19.67;5.13;;;;;;;1.78;100.00;103894.50;5077463;28;20063;-80
2022/01/18 05:35:19;;;;;;;18.45;5.28;;;;;;;1.77;100.00;103900.56;5076991;28;20028;-84
2022/01/18 05:37:46;;;;;;;15.50;4.72;;;;;;;1.76;100.00;103904.88;5084157;28;20085;-75
2022/01/18 05:40:11;;;;;;;18.10;5.47;;;;;;;1.74;100.00;103908.25;5087709;28;20035;-74
2022/01/18 05:42:37;;;;;;;20.33;4.82;;;;;;;1.74;100.00;103910.88;5075822;28;20025;-77
2022/01/18 05:45:03;;;;;;;36.10;5.18;;;;;;;1.75;100.00;103904.81;5075727;28;20525;-80
2022/01/18 05:47:28;;;;;;;15.48;5.32;;;;;;;1.70;100.00;103901.13;5075095;28;20024;-79
2022/01/18 05:49:55;;;;;;;13.52;5.03;;;;;;;1.67;100.00;103901.88;5075410;28;20012;-78
2022/01/18 05:52:20;;;;;;;8.93;4.35;;;;;;;1.67;100.00;103899.28;5075219;28;20052;-78
2022/01/18 05:54:45;;;;;;;8.73;4.10;;;;;;;1.66;100.00;103897.50;5075336;28;20012;-74
2022/01/18 05:57:10;;;;;;;13.15;4.63;;;;;;;1.65;100.00;103914.00;5074601;28;20040;-86
2022/01/18 05:59:38;;;;;;;12.52;4.50;;;;;;;1.64;100.00;103917.44;5074151;28;20044;-75
2022/01/18 06:02:16;;;;;;;11.45;4.50;;;;;;;1.64;100.00;103904.38;5073775;28;20036;-74
2022/01/18 06:07:26;;;;;;;12.38;4.93;;;;;;;1.62;100.00;103898.19;5074046;28;20058;-76
2022/01/18 06:09:53;;;;;;;12.07;4.22;;;;;;;1.60;100.00;103900.75;5073563;28;20468;-82
2022/01/18 06:12:28;;;;;;;12.68;3.83;;;;;;;1.64;100.00;103891.31;5073226;28;20048;-80
2022/01/18 06:14:53;;;;;;;10.85;3.58;;;;;;;1.66;100.00;103892.25;5071395;28;20028;-81
2022/01/18 06:17:19;;;;;;;13.07;3.85;;;;;;;1.63;100.00;103890.41;5073942;28;20029;-84
2022/01/18 06:19:44;;;;;;;14.60;3.85;;;;;;;1.59;100.00;103891.13;5073294;28;20024;-85
2022/01/18 06:22:09;;;;;;;16.45;4.32;;;;;;;1.56;100.00;103884.88;5072052;28;20032;-84
2022/01/18 06:24:35;;;;;;;13.82;4.13;;;;;;;1.51;100.00;103889.00;5073316;28;20056;-75
2022/01/18 06:27:00;;;;;;;19.42;4.18;;;;;;;1.45;100.00;103894.88;5073740;28;20020;-75
2022/01/18 06:29:25;;;;;;;9.43;3.90;;;;;;;1.45;100.00;103901.00;5073293;28;20031;-77
2022/01/18 06:31:50;;;;;;;18.77;4.38;;;;;;;1.41;100.00;103901.69;5073276;28;20021;-79
2022/01/18 06:34:16;;;;;;;20.42;4.78;;;;;;;1.39;100.00;103900.72;5072860;28;20086;-76
2022/01/18 06:36:42;;;;;;;14.60;4.95;;;;;;;1.38;100.00;103904.19;5073670;28;20021;-85
2022/01/18 06:39:07;;;;;;;13.90;5.18;;;;;;;1.41;100.00;103898.19;5073931;28;20534;-75
2022/01/18 06:41:32;;;;;;;22.52;5.35;;;;;;;1.43;100.00;103901.75;5072452;28;20099;-75
2022/01/18 06:43:58;;;;;;;14.38;5.57;;;;;;;1.45;100.00;103907.94;5072745;28;20036;-75
2022/01/18 06:46:23;;;;;;;16.88;5.68;;;;;;;1.46;100.00;103908.00;5055128;28;20100;-76
2022/01/18 06:48:49;;;;;;;20.08;5.30;;;;;;;1.48;100.00;103910.66;5053592;28;20025;-79
2022/01/18 06:51:14;;;;;;;17.50;5.97;;;;;;;1.49;100.00;103906.34;5067318;28;20070;-79
2022/01/18 06:53:45;;;;;;;18.35;5.63;;;;;;;1.48;100.00;103897.63;5071217;28;20028;-75
2022/01/18 06:56:12;;;;;;;19.15;7.03;;;;;;;1.49;100.00;103907.25;5052360;28;20137;-76
2022/01/18 06:58:39;;;;;;;38.47;7.03;;;;;;;1.49;100.00;103902.00;5052773;28;20060;-75
2022/01/18 07:01:05;;;;;;;40.00;5.63;;;;;;;1.48;100.00;103910.66;5053461;28;20025;-75
2022/01/18 07:03:30;;;;;;;45.15;6.90;;;;;;;1.49;100.00;103907.25;5070844;28;20468;-75
2022/01/18 07:05:55;;;;;;;25.38;5.90;;;;;;;1.51;100.00;103907.28;5072502;28;20036;-78
2022/01/18 07:08:21;;;;;;;13.38;5.82;;;;;;;1.48;100.00;103905.44;5072875;28;20110;-83
2022/01/18 07:10:46;;;;;;;38.90;5.88;;;;;;;1.48;100.00;103905.44;5072581;28;20032;-82
2022/01/18 07:13:14;;;;;;;36.35;5.50;;;;;;;1.50;100.00;103911.63;5072542;28;20175;-74
2022/01/18 07:15:39;;;;;;;18.35;5.57;;;;;;;1.52;100.00;103914.31;5072647;28;20060;-82
2022/01/18 07:18:05;;;;;;;44.70;6.90;;;;;;;1.51;100.00;103909.91;5067810;28;20167;-79
2022/01/18 07:20:31;;;;;;;23.23;6.18;;;;;;;1.52;100.00;103915.19;5053767;28;20175;-73
2022/01/18 07:22:57;;;;;;;19.83;5.45;;;;;;;1.53;100.00;103916.09;5071965;28;20071;-73
2022/01/18 07:25:25;;;;;;;25.25;5.50;;;;;;;1.55;100.00;103920.56;5071597;28;20027;-75
2022/01/18 07:27:52;;;;;;;34.17;5.60;;;;;;;1.59;100.00;103918.97;5072730;28;20060;-72
2022/01/18 07:30:17;;;;;;;18.85;5.63;;;;;;;1.60;100.00;103918.16;5070457;28;20028;-76
2022/01/18 07:32:43;;;;;;;10.95;4.78;;;;;;;1.64;100.00;103920.94;5065678;28;20036;-72
2022/01/18 07:35:11;;;;;;;16.27;4.82;;;;;;;1.71;100.00;103918.59;5067533;28;20040;-71
2022/01/18 07:37:36;;;;;;;42.67;5.13;;;;;;;1.79;100.00;103925.00;5072299;28;20028;-72
2022/01/18 07:40:03;;;;;;;13.30;4.72;;;;;;;1.81;100.00;103920.75;5072190;28;20021;-72
2022/01/18 07:42:29;;;;;;;29.20;4.53;;;;;;;1.83;100.00;103926.94;5071068;28;20025;-72
2022/01/18 07:44:54;;;;;;;12.43;3.65;;;;;;;1.91;100.00;103919.44;5072238;28;20078;-76
2022/01/18 07:47:20;;;;;;;35.95;4.45;;;;;;;1.94;100.00;103917.84;5071793;28;20071;-76
2022/01/18 07:49:46;;;;;;;12.32;3.53;;;;;;;2.02;100.00;103917.22;5072065;28;20421;-75
2022/01/18 07:52:12;;;;;;;16.67;3.85;;;;;;;2.05;100.00;103933.06;5070575;28;20437;-75
2022/01/18 07:54:37;;;;;;;16.30;3.72;;;;;;;2.12;100.00;103928.16;5075517;28;20063;-76
2022/01/18 07:57:03;;;;;;;18.40;3.95;;;;;;;2.19;100.00;103934.50;5075517;28;20042;-71
2022/01/18 07:59:28;;;;;;;13.95;4.10;;;;;;;2.27;100.00;103927.84;5068604;28;20413;-72
2022/01/18 08:01:55;;;;;;;14.25;3.60;;;;;;;2.34;100.00;103931.63;5056228;28;20021;-74
2022/01/18 08:04:20;;;;;;;12.05;3.70;;;;;;;2.40;100.00;103936.19;5066940;28;20067;-74
2022/01/18 08:06:45;;;;;;;8.23;3.70;;;;;;;2.44;100.00;103936.38;5072575;28;20469;-73
2022/01/18 08:09:11;;;;;;;8.65;3.47;;;;;;;2.56;100.00;103937.69;5076193;28;20081;-75
2022/01/18 08:11:37;;;;;;;14.27;3.25;;;;;;;2.62;100.00;103935.28;5075530;28;20377;-75
2022/01/18 08:14:03;;;;;;;8.73;3.50;;;;;;;2.69;100.00;103932.06;5076553;28;20035;-74
2022/01/18 08:18:57;;;;;;;9.63;3.70;;;;;;;2.80;100.00;103935.09;5075808;28;20040;-73
2022/01/18 08:21:23;;;;;;;10.95;4.28;;;;;;;2.82;100.00;103940.41;5075707;28;20020;-73
2022/01/18 08:23:49;;;;;;;13.02;4.35;;;;;;;2.85;100.00;103937.88;5076845;28;20101;-75
2022/01/18 08:26:14;;;;;;;18.98;5.10;;;;;;;2.91;100.00;103931.13;5075770;28;20523;-74
2022/01/18 08:28:40;;;;;;;28.10;5.93;;;;;;;2.97;100.00;103930.50;5075768;28;20027;-76
2022/01/18 08:31:05;;;;;;;20.15;6.25;;;;;;;3.02;100.00;103930.63;5075571;28;20136;-74
2022/01/18 08:33:32;;;;;;;27.23;7.07;;;;;;;3.05;100.00;103936.88;5075157;28;20020;-73
2022/01/18 08:36:03;;;;;;;29.52;7.47;;;;;;;3.10;100.00;103934.44;5068278;28;20020;-70
2022/01/18 08:38:29;;;;;;;20.45;6.80;;;;;;;3.10;100.00;103944.91;5070809;28;20043;-76
2022/01/18 08:40:54;;;;;;;45.97;7.75;;;;;;;3.08;100.00;103943.97;5074311;28;20028;-74
2022/01/18 08:43:20;;;;;;;39.10;7.70;;;;;;;3.10;100.00;103937.06;5074493;28;20033;-76
2022/01/18 08:45:46;;;;;;;34.28;8.45;;;;;;;3.13;100.00;103942.41;5075496;28;20040;-73
2022/01/18 08:48:11;;;;;;;43.80;8.65;;;;;;;3.15;100.00;103950.34;5074959;28;20025;-71
2022/01/18 08:50:37;;;;;;;41.60;8.32;;;;;;;3.17;100.00;103953.88;5075604;28;20102;-73
2022/01/18 08:53:02;;;;;;;34.80;8.02;;;;;;;3.16;100.00;103957.31;5075204;28;20032;-75
2022/01/18 08:55:29;;;;;;;45.38;8.18;;;;;;;3.03;100.00;103951.66;5074812;28;20052;-71
2022/01/18 08:57:54;;;;;;;34.90;7.95;;;;;;;2.99;100.00;103957.59;5075047;28;20021;-72
2022/01/18 09:00:20;;;;;;;35.05;7.75;;;;;;;3.00;100.00;103953.28;5075289;28;20350;-76
2022/01/18 09:02:45;;;;;;;63.50;8.60;;;;;;;3.00;100.00;103953.28;5074325;28;20082;-76
2022/01/18 09:05:11;;;;;;;63.00;10.57;;;;;;;3.01;100.00;103952.44;5074380;28;20024;-76
2022/01/18 09:07:38;;;;;;;34.42;8.70;;;;;;;3.04;100.00;103956.03;5075114;28;20025;-76
2022/01/18 09:10:10;;;;;;;31.00;8.65;;;;;;;3.07;100.00;103964.03;5075057;28;20024;-73
2022/01/18 09:12:36;;;;;;;52.58;9.25;;;;;;;3.11;100.00;103957.19;5073672;28;20028;-72
2022/01/18 09:15:06;;;;;;;45.08;9.10;;;;;;;3.18;100.00;103955.66;5075145;28;20031;-76
2022/01/18 09:17:33;;;;;;;48.65;9.88;;;;;;;3.24;100.00;103954.16;5063021;28;20103;-74
2022/01/18 09:20:00;;;;;;;35.45;10.85;;;;;;;3.24;100.00;103953.28;5054659;28;20029;-72
2022/01/18 09:22:25;;;;;;;20.92;8.43;;;;;;;3.30;100.00;103956.13;5074377;28;20036;-73
2022/01/18 09:24:51;;;;;;;27.65;8.82;;;;;;;3.37;100.00;103959.84;5074396;28;20073;-74
2022/01/18 09:27:17;;;;;;;41.72;7.95;;;;;;;3.45;100.00;103950.50;5074049;28;20030;-73
2022/01/18 09:29:42;;;;;;;27.67;7.53;;;;;;;3.45;100.00;103953.13;5074372;28;20029;-75
2022/01/18 09:32:08;;;;;;;21.80;6.35;;;;;;;3.49;100.00;103943.66;5073805;28;20028;-76
2022/01/18 09:34:34;;;;;;;39.55;8.55;;;;;;;3.47;100.00;103951.47;5074098;28;20442;-73
2022/01/18 09:37:00;;;;;;;18.88;6.97;;;;;;;3.51;100.00;103953.34;5074635;28;20024;-73
2022/01/18 09:39:26;;;;;;;24.05;7.78;;;;;;;3.55;100.00;103956.97;5074300;28;20074;-71
2022/01/18 09:41:53;;;;;;;29.17;7.55;;;;;;;3.56;100.00;103956.16;5070395;28;20024;-74
2022/01/18 09:44:19;;;;;;;32.13;7.93;;;;;;;3.57;100.00;103952.69;5060577;28;20063;-75
2022/01/18 09:46:49;;;;;;;35.80;8.25;;;;;;;3.52;100.00;103951.63;5061027;28;20112;-76
2022/01/18 09:49:17;;;;;;;37.53;8.35;;;;;;;3.56;100.00;103959.63;5054111;28;20067;-76
2022/01/18 09:51:42;;;;;;;36.80;9.35;;;;;;;3.52;100.00;103957.75;5054257;28;20033;-75
2022/01/18 09:54:07;;;;;;;21.77;8.52;;;;;;;3.61;100.00;103960.69;5063030;28;20035;-74
2022/01/18 09:56:33;;;;;;;29.40;9.82;;;;;;;3.67;100.00;103959.13;5065814;28;20131;-76
2022/01/18 09:58:58;;;;;;;26.08;8.98;;;;;;;3.73;100.00;103961.94;5067426;28;20038;-75
2022/01/18 10:01:23;;;;;;;45.90;9.70;;;;;;;3.71;100.00;103966.25;5064047;28;20465;-73
2022/01/18 10:03:48;;;;;;;60.25;10.40;;;;;;;3.65;100.00;103963.44;5072941;28;20037;-76
2022/01/18 10:06:17;;;;;;;42.75;9.88;;;;;;;3.72;100.00;103962.78;5073939;28;20033;-76
2022/01/18 10:08:48;;;;;;;48.88;9.70;;;;;;;3.77;100.00;103970.00;5073757;28;20115;-76
2022/01/18 10:11:17;;;;;;;26.95;10.68;;;;;;;3.81;100.00;103964.84;5073484;28;20027;-76
2022/01/18 10:13:48;;;;;;;31.15;10.05;;;;;;;3.74;100.00;103956.75;5073251;28;20530;-76
2022/01/18 10:16:21;;;;;;;73.25;12.65;;;;;;;3.79;100.00;103958.66;5072606;28;20158;-77
2022/01/18 10:19:03;;;;;;;46.70;11.25;;;;;;;3.85;100.00;103958.84;5073473;28;20020;-75
2022/01/18 10:21:46;;;;;;;95.47;12.20;;;;;;;3.94;100.00;103953.94;5054218;28;20041;-79
2022/01/18 10:24:16;;;;;;;31.05;11.30;;;;;;;3.99;100.00;103943.56;5056472;28;20484;-79
2022/01/18 10:26:44;;;;;;;42.85;12.70;;;;;;;4.03;100.00;103958.56;5073202;28;20033;-77
2022/01/18 10:29:12;;;;;;;48.80;12.82;;;;;;;4.14;100.00;103954.56;5073475;28;20024;-77
2022/01/18 10:31:45;;;;;;;49.92;12.35;;;;;;;4.09;100.00;103957.06;5073319;28;20028;-78
2022/01/18 10:34:24;;;;;;;45.88;13.00;;;;;;;4.23;100.00;103956.59;5073219;28;20441;-78
2022/01/18 10:36:55;;;;;;;37.10;14.07;;;;;;;4.33;100.00;103960.41;5073155;28;20044;-79
2022/01/18 10:39:28;;;;;;;39.88;14.18;;;;;;;4.33;100.00;103958.66;5073008;28;20036;-78
2022/01/18 10:41:54;;;;;;;59.22;14.55;;;;;;;4.39;100.00;103953.63;5072850;28;20032;-76
2022/01/18 10:44:20;;;;;;;49.60;13.88;;;;;;;4.39;100.00;103951.00;5071652;28;20036;-78
2022/01/18 10:46:49;;;;;;;44.10;14.73;;;;;;;4.42;100.00;103956.34;5072377;28;20037;-79
2022/01/18 10:49:30;;;;;;;49.35;14.50;;;;;;;4.35;100.00;103957.00;5072647;28;20048;-78
2022/01/18 10:51:58;;;;;;;39.95;13.57;;;;;;;4.32;100.00;103958.63;5073562;28;20028;-78
2022/01/18 10:54:34;;;;;;;38.22;13.45;;;;;;;4.40;100.00;103955.41;5072745;28;20025;-75
2022/01/18 10:57:03;;;;;;;34.38;12.80;;;;;;;4.42;100.00;103960.69;5071392;28;20040;-79
2022/01/18 10:59:29;;;;;;;40.88;11.82;;;;;;;4.34;100.00;103959.56;5072692;28;20554;-78
2022/01/18 11:02:07;;;;;;;39.50;10.95;;;;;;;4.33;100.00;103960.41;5072922;28;20031;-74
2022/01/18 11:04:33;;;;;;;38.75;12.05;;;;;;;4.36;100.00;103955.25;5072325;28;20116;-75
2022/01/18 11:07:01;;;;;;;41.35;9.77;;;;;;;4.29;100.00;103943.69;5063892;28;20104;-76
2022/01/18 11:09:26;;;;;;;56.47;10.52;;;;;;;4.38;100.00;103943.09;5064577;28;20028;-80
2022/01/18 11:11:52;;;;;;;33.88;9.88;;;;;;;4.41;100.00;103925.69;5067930;28;20086;-79
2022/01/18 11:14:20;;;;;;;57.08;12.00;;;;;;;4.32;100.00;103940.25;5072009;28;20028;-83
2022/01/18 11:16:48;;;;;;;45.28;8.73;;;;;;;4.31;100.00;103933.22;5071644;28;20027;-82
2022/01/18 11:21:54;;;;;;;39.17;11.93;;;;;;;4.37;100.00;103931.72;5064983;28;20033;-80
2022/01/18 11:24:20;;;;;;;48.13;10.50;;;;;;;4.47;100.00;103934.59;5072074;28;20028;-83
2022/01/18 11:26:47;;;;;;;38.03;11.75;;;;;;;4.50;100.00;103937.31;5071955;28;20029;-80
2022/01/18 11:29:16;;;;;;;46.83;13.30;;;;;;;4.53;100.00;103937.41;5072724;28;20519;-80
2022/01/18 11:31:46;;;;;;;42.30;15.95;;;;;;;4.61;100.00;103927.16;5072533;28;20035;-79
2022/01/18 11:34:16;;;;;;;48.40;17.20;;;;;;;4.66;100.00;103921.19;5072370;28;20101;-81
2022/01/18 11:36:46;;;;;;;114.10;30.48;;;;;;;4.68;100.00;103930.00;5070150;28;20037;-78
2022/01/18 11:39:12;;;;;;;53.65;17.88;;;;;;;4.76;100.00;103928.47;5072094;28;20464;-80
2022/01/18 11:41:38;;;;;;;51.22;16.80;;;;;;;4.89;100.00;103920.97;5071889;28;20104;-77
2022/01/18 11:44:12;;;;;;;55.78;16.67;;;;;;;4.90;100.00;103915.75;5072351;28;20056;-83
2022/01/18 11:46:50;;;;;;;57.88;15.80;;;;;;;4.89;100.00;103918.34;5072912;28;20059;-81
2022/01/18 11:49:29;;;;;;;45.65;15.75;;;;;;;4.92;100.00;103913.16;5072186;28;20345;-77
2022/01/18 11:52:05;;;;;;;42.95;16.67;;;;;;;4.96;100.00;103914.16;5072715;28;20082;-82
2022/01/18 11:54:37;;;;;;;55.08;18.55;;;;;;;4.95;100.00;103918.53;5074368;28;20115;-83
2022/01/18 11:57:23;;;;;;;60.20;20.83;;;;;;;4.99;100.00;103915.13;5071569;28;20055;-78
2022/01/18 11:59:50;;;;;;;46.97;18.80;;;;;;;4.91;100.00;103912.28;5063753;28;20130;-78
2022/01/18 12:02:44;;;;;;;51.28;17.50;;;;;;;4.96;100.00;103919.41;5066804;28;20025;-74
2022/01/18 12:05:14;;;;;;;55.63;17.42;;;;;;;4.98;100.00;103913.34;5070782;28;20036;-76
2022/01/18 12:07:41;;;;;;;44.95;16.30;;;;;;;5.04;100.00;103904.75;5073195;28;20036;-77
2022/01/18 12:10:08;;;;;;;53.17;17.35;;;;;;;5.00;100.00;103906.41;5071835;28;20035;-77
2022/01/18 12:12:45;;;;;;;40.95;15.30;;;;;;;5.04;100.00;103903.00;5072092;28;20417;-76
2022/01/18 12:15:16;;;;;;;42.90;14.65;;;;;;;4.93;100.00;103904.44;5073305;28;20174;-76
2022/01/18 12:17:53;;;;;;;51.58;15.15;;;;;;;4.96;100.00;103891.38;5071951;28;20079;-78
2022/01/18 12:20:37;;;;;;;44.72;15.25;;;;;;;5.03;100.00;103901.22;5072066;28;20032;-75
2022/01/18 12:23:08;;;;;;;53.70;16.55;;;;;;;5.03;100.00;103892.47;5073019;28;20039;-77
2022/01/18 12:25:36;;;;;;;51.80;16.13;;;;;;;4.98;100.00;103894.09;5071471;28;20082;-76
2022/01/18 12:28:49;;;;;;;50.88;15.77;;;;;;;4.99;100.00;103895.88;5072208;28;20024;-76
2022/01/18 12:34:43;;;;;;;41.22;15.13;;;;;;;5.07;100.00;103891.69;5072810;28;20131;-75